createdAt,value
2019-05-12T00:03:45.807Z,23.77
2019-05-12T00:08:52.253Z,24.23
2019-05-12T00:13:58.785Z,23.25
2019-05-12T00:19:05.566Z,22.40
2019-05-12T00:24:11.833Z,20.72
2019-05-12T00:29:18.591Z,16.70
2019-05-12T00:34:24.753Z,15.35
2019-05-12T00:39:31.141Z,17.05
2019-05-12T00:44:39.044Z,12.13
2019-05-12T00:49:45.268Z,15.90
2019-05-12T00:54:51.400Z,9.45
2019-05-12T00:59:58.204Z,14.65
2019-05-12T01:05:04.491Z,13.08
2019-05-12T01:10:10.760Z,14.93
2019-05-12T01:15:17.899Z,16.02
2019-05-12T01:20:24.255Z,14.65
2019-05-12T01:25:30.607Z,11.93
2019-05-12T01:30:39.030Z,11.33
2019-05-12T01:35:44.571Z,11.20
2019-05-12T01:40:50.723Z,12.88
2019-05-12T01:45:58.962Z,11.75
2019-05-12T01:51:04.898Z,13.03
2019-05-12T01:56:11.470Z,9.35
2019-05-12T02:01:18.581Z,13.05
2019-05-12T02:06:24.545Z,11.85
2019-05-12T02:11:33.509Z,18.70
2019-05-12T02:16:39.666Z,14.28
2019-05-12T02:21:46.000Z,15.18
2019-05-12T02:26:52.293Z,13.32
2019-05-12T02:31:59.151Z,14.33
2019-05-12T02:37:05.777Z,14.95
2019-05-12T02:42:15.350Z,11.60
2019-05-12T02:47:19.684Z,13.20
2019-05-12T02:52:25.935Z,11.60
2019-05-12T02:57:34.432Z,9.48
2019-05-12T03:02:44.245Z,10.98
2019-05-12T03:07:50.326Z,11.38
2019-05-12T03:12:56.735Z,9.40
2019-05-12T03:18:06.164Z,12.95
2019-05-12T03:23:11.455Z,13.05
2019-05-12T03:28:18.081Z,10.65
2019-05-12T03:33:33.334Z,10.55
2019-05-12T03:38:35.956Z,8.80
2019-05-12T03:43:44.596Z,10.60
2019-05-12T03:48:49.613Z,10.63
2019-05-12T03:53:56.003Z,10.70
2019-05-12T03:59:04.778Z,9.73
2019-05-12T04:04:10.910Z,9.98
2019-05-12T04:09:17.224Z,12.10
2019-05-12T04:14:25.177Z,12.23
2019-05-12T04:19:34.182Z,15.18
2019-05-12T04:24:39.367Z,11.22
2019-05-12T04:29:45.798Z,9.48
2019-05-12T04:34:54.933Z,10.35
2019-05-12T04:40:00.074Z,10.70
2019-05-12T04:45:07.082Z,9.55
2019-05-12T04:50:15.532Z,13.25
2019-05-12T04:55:21.519Z,12.98
2019-05-12T05:00:27.803Z,9.70
2019-05-12T05:05:35.383Z,11.28
2019-05-12T05:10:44.381Z,14.90
2019-05-12T05:15:50.119Z,9.80
2019-05-12T05:20:56.294Z,9.65
2019-05-12T05:26:03.278Z,8.53
2019-05-12T05:31:09.647Z,8.88
2019-05-12T05:36:19.841Z,15.68
2019-05-12T05:41:24.133Z,14.07
2019-05-12T05:46:30.250Z,14.25
2019-05-12T05:51:39.478Z,12.05
2019-05-12T05:56:57.553Z,14.60
2019-05-12T06:01:54.833Z,11.22
2019-05-12T06:07:00.562Z,14.07
2019-05-12T06:12:09.714Z,11.90
2019-05-12T06:17:14.821Z,10.53
2019-05-12T06:22:23.393Z,12.25
2019-05-12T06:27:29.109Z,13.40
2019-05-12T06:32:35.451Z,10.82
2019-05-12T06:37:44.197Z,8.93
2019-05-12T06:42:54.102Z,10.93
2019-05-12T06:47:57.880Z,9.45
2019-05-12T06:53:05.028Z,9.65
2019-05-12T06:58:13.757Z,12.33
2019-05-12T07:03:24.719Z,11.90
2019-05-12T07:08:32.929Z,14.40
2019-05-12T07:13:35.664Z,16.67
2019-05-12T07:18:43.725Z,13.32
2019-05-12T07:23:50.028Z,10.58
2019-05-12T07:28:56.323Z,10.03
2019-05-12T07:34:05.307Z,8.18
2019-05-12T07:39:10.399Z,7.78
2019-05-12T07:44:18.089Z,12.23
2019-05-12T07:49:34.472Z,13.88
2019-05-12T07:54:37.323Z,11.25
2019-05-12T07:59:41.132Z,12.50
2019-05-12T08:04:47.372Z,8.30
2019-05-12T08:09:53.706Z,7.65
2019-05-12T08:15:07.794Z,9.13
2019-05-12T08:20:08.417Z,9.40
2019-05-12T08:25:18.819Z,7.92
2019-05-12T08:30:34.675Z,7.45
2019-05-12T08:35:40.888Z,8.60
2019-05-12T08:40:50.906Z,6.22
2019-05-12T08:46:00.330Z,5.92
2019-05-12T08:51:05.274Z,4.80
2019-05-12T08:56:14.753Z,3.45
2019-05-12T09:01:20.263Z,3.87
2019-05-12T09:06:28.035Z,5.78
2019-05-12T09:11:34.332Z,5.85
2019-05-12T09:16:40.987Z,5.20
2019-05-12T09:21:47.226Z,3.15
2019-05-12T09:26:53.903Z,5.87
2019-05-12T09:32:05.418Z,2.62
2019-05-12T09:37:08.382Z,3.72
2019-05-12T09:42:19.436Z,5.87
2019-05-12T09:47:27.594Z,2.98
2019-05-12T09:52:33.392Z,4.20
2019-05-12T09:57:41.159Z,3.30
2019-05-12T10:02:51.140Z,3.62
2019-05-12T10:07:55.709Z,5.47
2019-05-12T10:13:04.301Z,2.52
2019-05-12T10:18:11.367Z,3.33
2019-05-12T10:23:21.516Z,3.90
2019-05-12T10:28:25.998Z,2.70
2019-05-12T10:33:33.816Z,3.22
2019-05-12T10:38:40.118Z,2.42
2019-05-12T10:43:48.511Z,2.45
2019-05-12T10:48:54.564Z,3.77
2019-05-12T10:54:09.117Z,4.90
2019-05-12T10:59:10.495Z,4.92
2019-05-12T11:04:17.017Z,6.83
2019-05-12T11:09:27.413Z,3.92
2019-05-12T11:14:31.254Z,4.80
2019-05-12T11:19:40.882Z,2.52
2019-05-12T11:24:46.038Z,4.35
2019-05-12T11:29:53.477Z,3.37
2019-05-12T11:34:59.780Z,2.50
2019-05-12T11:40:07.606Z,1.75
2019-05-12T11:45:14.122Z,1.10
2019-05-12T11:50:20.685Z,2.45
2019-05-12T11:55:31.320Z,1.67
2019-05-12T12:00:36.775Z,2.58
2019-05-12T12:05:44.324Z,1.95
2019-05-12T12:10:50.795Z,3.12
2019-05-12T12:16:00.577Z,1.82
2019-05-12T12:21:07.715Z,3.50
2019-05-12T12:26:26.128Z,3.75
2019-05-12T12:31:48.233Z,4.00
2019-05-12T12:36:54.696Z,4.55
2019-05-12T12:42:01.043Z,3.45
2019-05-12T12:47:07.386Z,3.58
2019-05-12T12:52:13.986Z,3.83
2019-05-12T12:57:20.248Z,2.98
2019-05-12T13:02:26.561Z,2.27
2019-05-12T13:07:33.412Z,4.47
2019-05-12T13:12:40.073Z,4.22
2019-05-12T13:17:46.283Z,2.33
2019-05-12T13:22:53.607Z,3.22
2019-05-12T13:28:01.666Z,3.75
2019-05-12T13:33:14.862Z,3.05
2019-05-12T13:38:16.492Z,4.55
2019-05-12T13:43:23.712Z,4.80
2019-05-12T13:48:30.383Z,2.17
2019-05-12T13:53:40.462Z,3.72
2019-05-12T13:58:45.947Z,4.70
2019-05-12T14:03:53.579Z,2.77
2019-05-12T14:09:00.195Z,5.08
2019-05-12T14:14:11.361Z,3.10
2019-05-12T14:19:14.835Z,1.87
2019-05-12T14:24:23.184Z,2.37
2019-05-12T14:29:30.598Z,2.90
2019-05-12T14:34:37.013Z,3.58
2019-05-12T14:39:48.312Z,2.62
2019-05-12T14:44:51.192Z,2.05
2019-05-12T14:49:57.497Z,3.75
2019-05-12T14:55:03.731Z,2.15
2019-05-12T15:00:11.214Z,1.00
2019-05-12T15:05:18.489Z,2.85
2019-05-12T15:10:24.876Z,3.08
2019-05-12T15:15:33.463Z,1.77
2019-05-12T15:20:41.612Z,2.70
2019-05-12T15:25:47.259Z,2.05
2019-05-12T15:30:54.164Z,2.55
2019-05-12T15:36:00.600Z,3.05
2019-05-12T15:41:10.789Z,1.45
2019-05-12T15:46:16.438Z,2.17
2019-05-12T15:51:23.422Z,2.00
2019-05-12T15:56:29.944Z,2.75
2019-05-12T16:01:36.034Z,2.40
2019-05-12T16:06:52.911Z,1.62
2019-05-12T16:11:50.808Z,2.02
2019-05-12T16:16:57.278Z,1.82
2019-05-12T16:22:03.753Z,3.42
2019-05-12T16:27:10.006Z,1.85
2019-05-12T16:32:26.424Z,1.25
2019-05-12T16:37:31.057Z,3.67
2019-05-12T16:42:33.641Z,3.67
2019-05-12T16:47:40.152Z,3.70
2019-05-12T16:52:46.342Z,3.35
2019-05-12T16:57:55.795Z,4.15
2019-05-12T17:03:00.920Z,4.03
2019-05-12T17:08:07.103Z,3.52
2019-05-12T17:13:16.045Z,2.22
2019-05-12T17:18:24.425Z,1.67
2019-05-12T17:23:29.559Z,2.22
2019-05-12T17:28:35.791Z,2.98
2019-05-12T17:33:42.222Z,2.58
2019-05-12T17:38:51.227Z,2.85
2019-05-12T17:44:01.405Z,2.98
2019-05-12T17:49:04.754Z,2.50
2019-05-12T17:54:15.748Z,2.25
2019-05-12T17:59:24.505Z,2.45
2019-05-12T18:04:30.522Z,1.52
2019-05-12T18:09:34.747Z,1.80
2019-05-12T18:14:50.325Z,2.42
2019-05-12T18:19:50.398Z,2.05
2019-05-12T18:24:57.231Z,2.95
2019-05-12T18:30:04.518Z,2.60
2019-05-12T18:35:10.763Z,1.42
2019-05-12T18:40:17.316Z,1.42
2019-05-12T18:45:24.086Z,1.75
2019-05-12T18:50:32.100Z,1.60
2019-05-12T18:55:40.313Z,3.83
2019-05-12T19:00:46.666Z,1.50
2019-05-12T19:05:54.278Z,4.15
2019-05-12T19:11:14.927Z,2.55
2019-05-12T19:16:11.288Z,3.37
2019-05-12T19:21:20.103Z,1.57
2019-05-12T19:26:24.893Z,2.15
2019-05-12T19:31:30.880Z,4.22
2019-05-12T19:36:46.563Z,2.35
2019-05-12T19:41:45.998Z,3.27
2019-05-12T19:46:53.940Z,3.58
2019-05-12T19:52:00.610Z,1.75
2019-05-12T19:57:15.553Z,7.50
2019-05-12T20:02:15.522Z,1.98
2019-05-12T20:07:23.342Z,5.30
2019-05-12T20:12:29.623Z,4.47
2019-05-12T20:17:36.063Z,4.00
2019-05-12T20:22:44.053Z,3.65
2019-05-12T20:27:56.169Z,2.33
2019-05-12T20:32:58.494Z,2.75
2019-05-12T20:38:04.696Z,1.75
2019-05-12T20:43:14.458Z,2.95
2019-05-12T20:48:19.771Z,3.40
2019-05-12T20:53:31.723Z,3.75
2019-05-12T20:58:42.988Z,4.22
2019-05-12T21:03:46.354Z,4.08
2019-05-12T21:08:53.792Z,5.65
2019-05-12T21:14:01.059Z,2.77
2019-05-12T21:19:11.009Z,1.95
2019-05-12T21:24:15.067Z,7.17
2019-05-12T21:29:25.606Z,3.37
2019-05-12T21:34:29.388Z,2.02
2019-05-12T21:39:40.493Z,2.35
2019-05-12T21:44:46.845Z,3.27
2019-05-12T21:49:55.729Z,5.67
2019-05-12T21:55:00.140Z,2.02
2019-05-12T22:00:15.907Z,2.35
2019-05-12T22:05:30.014Z,3.85
2019-05-12T22:10:30.689Z,3.77
2019-05-12T22:15:37.261Z,8.73
2019-05-12T22:20:44.356Z,5.33
2019-05-12T22:25:55.588Z,2.92
2019-05-12T22:30:59.655Z,2.75
2019-05-12T22:36:14.187Z,2.92
2019-05-12T22:41:14.195Z,4.78
2019-05-12T22:46:23.342Z,2.27
2019-05-12T22:51:28.618Z,3.12
2019-05-12T22:56:34.912Z,4.35
2019-05-12T23:01:43.770Z,3.37
2019-05-12T23:06:48.916Z,1.90
2019-05-12T23:11:55.147Z,3.87
2019-05-12T23:17:05.685Z,2.15
2019-05-12T23:22:09.324Z,2.42
2019-05-12T23:27:18.863Z,5.30
2019-05-12T23:32:24.223Z,2.15
2019-05-12T23:37:38.348Z,3.92
2019-05-12T23:42:38.439Z,3.55
2019-05-12T23:47:45.621Z,1.72
2019-05-12T23:52:54.063Z,4.30
2019-05-12T23:58:00.026Z,5.22
